sensor_id;sensor_type;location;lat;lon;timestamp;temperature;humidity
39277;DHT22;63149;48.086;-1.606;2023-08-12T05:02:29;17.90;99.90
39277;DHT22;63149;48.086;-1.606;2023-08-12T05:04:56;17.90;99.90
39277;DHT22;63149;48.086;-1.606;2023-08-12T05:07:23;17.90;99.90
39277;DHT22;63149;48.086;-1.606;2023-08-12T05:09:50;17.80;99.90
39277;DHT22;63149;48.086;-1.606;2023-08-12T05:12:17;17.80;99.90
39277;DHT22;63149;48.086;-1.606;2023-08-12T05:14:44;17.80;99.90
39277;DHT22;63149;48.086;-1.606;2023-08-12T05:17:11;17.80;99.90
39277;DHT22;63149;48.086;-1.606;2023-08-12T05:19:39;17.80;99.90
39277;DHT22;63149;48.086;-1.606;2023-08-12T05:22:06;17.80;99.90
39277;DHT22;63149;48.086;-1.606;2023-08-12T05:24:33;17.70;99.90
39277;DHT22;63149;48.086;-1.606;2023-08-12T05:27:00;17.70;99.90
39277;DHT22;63149;48.086;-1.606;2023-08-12T05:29:27;17.70;99.90
39277;DHT22;63149;48.086;-1.606;2023-08-12T05:31:53;17.70;99.90
39277;DHT22;63149;48.086;-1.606;2023-08-12T05:34:20;17.60;99.90
39277;DHT22;63149;48.086;-1.606;2023-08-12T05:36:49;17.60;99.90
39277;DHT22;63149;48.086;-1.606;2023-08-12T05:39:16;17.60;99.90
39277;DHT22;63149;48.086;-1.606;2023-08-12T05:41:43;17.60;99.90
39277;DHT22;63149;48.086;-1.606;2023-08-12T05:44:11;17.60;99.90
39277;DHT22;63149;48.086;-1.606;2023-08-12T05:46:38;17.60;99.90
39277;DHT22;63149;48.086;-1.606;2023-08-12T05:49:05;17.60;99.90
39277;DHT22;63149;48.086;-1.606;2023-08-12T05:51:32;17.60;99.90
39277;DHT22;63149;48.086;-1.606;2023-08-12T05:54:00;17.60;99.90
39277;DHT22;63149;48.086;-1.606;2023-08-12T05:56:27;17.60;99.90
39277;DHT22;63149;48.086;-1.606;2023-08-12T05:58:54;17.50;99.90
39277;DHT22;63149;48.086;-1.606;2023-08-12T06:01:21;17.50;99.90
39277;DHT22;63149;48.086;-1.606;2023-08-12T06:03:48;17.50;99.90
39277;DHT22;63149;48.086;-1.606;2023-08-12T06:06:15;17.40;99.90
39277;DHT22;63149;48.086;-1.606;2023-08-12T06:08:42;17.40;99.90
39277;DHT22;63149;48.086;-1.606;2023-08-12T06:11:10;17.40;99.90
39277;DHT22;63149;48.086;-1.606;2023-08-12T06:13:37;17.30;99.90
39277;DHT22;63149;48.086;-1.606;2023-08-12T06:16:04;17.30;99.90
39277;DHT22;63149;48.086;-1.606;2023-08-12T06:18:31;17.40;99.90
39277;DHT22;63149;48.086;-1.606;2023-08-12T06:20:58;17.40;99.90
39277;DHT22;63149;48.086;-1.606;2023-08-12T06:23:25;17.40;99.90
39277;DHT22;63149;48.086;-1.606;2023-08-12T06:25:52;17.40;99.90
39277;DHT22;63149;48.086;-1.606;2023-08-12T06:28:20;17.40;99.90
39277;DHT22;63149;48.086;-1.606;2023-08-12T06:30:47;17.30;99.90
39277;DHT22;63149;48.086;-1.606;2023-08-12T06:33:14;17.30;99.90
39277;DHT22;63149;48.086;-1.606;2023-08-12T06:35:41;17.30;99.90
39277;DHT22;63149;48.086;-1.606;2023-08-12T06:38:08;17.20;99.90
39277;DHT22;63149;48.086;-1.606;2023-08-12T06:40:38;17.20;99.90
39277;DHT22;63149;48.086;-1.606;2023-08-12T06:43:05;17.20;99.90
39277;DHT22;63149;48.086;-1.606;2023-08-12T06:45:34;17.30;99.90
39277;DHT22;63149;48.086;-1.606;2023-08-12T06:48:01;17.30;99.90
39277;DHT22;63149;48.086;-1.606;2023-08-12T06:50:28;17.30;99.90
39277;DHT22;63149;48.086;-1.606;2023-08-12T06:52:56;17.30;99.90
39277;DHT22;63149;48.086;-1.606;2023-08-12T06:55:23;17.30;99.90
39277;DHT22;63149;48.086;-1.606;2023-08-12T06:57:50;17.30;99.90
39277;DHT22;63149;48.086;-1.606;2023-08-12T07:00:16;17.40;99.90
39277;DHT22;63149;48.086;-1.606;2023-08-12T07:02:45;17.40;99.90
39277;DHT22;63149;48.086;-1.606;2023-08-12T07:05:12;17.40;99.90
39277;DHT22;63149;48.086;-1.606;2023-08-12T07:07:38;17.50;99.90
39277;DHT22;63149;48.086;-1.606;2023-08-12T07:10:06;17.50;99.90
39277;DHT22;63149;48.086;-1.606;2023-08-12T07:12:33;17.50;99.90
39277;DHT22;63149;48.086;-1.606;2023-08-12T07:15:00;17.50;99.90
39277;DHT22;63149;48.086;-1.606;2023-08-12T07:17:27;17.50;99.90
39277;DHT22;63149;48.086;-1.606;2023-08-12T07:19:55;17.50;99.90
39277;DHT22;63149;48.086;-1.606;2023-08-12T07:22:22;17.50;99.90
39277;DHT22;63149;48.086;-1.606;2023-08-12T07:24:49;17.50;99.90
39277;DHT22;63149;48.086;-1.606;2023-08-12T07:27:18;17.50;99.90
39277;DHT22;63149;48.086;-1.606;2023-08-12T07:29:46;17.50;99.90
39277;DHT22;63149;48.086;-1.606;2023-08-12T07:32:13;17.50;99.90
39277;DHT22;63149;48.086;-1.606;2023-08-12T07:34:40;17.50;99.90
39277;DHT22;63149;48.086;-1.606;2023-08-12T07:37:08;17.50;99.90
39277;DHT22;63149;48.086;-1.606;2023-08-12T07:39:35;17.50;99.90
39277;DHT22;63149;48.086;-1.606;2023-08-12T07:42:02;17.50;99.90
39277;DHT22;63149;48.086;-1.606;2023-08-12T07:44:29;17.50;99.90
39277;DHT22;63149;48.086;-1.606;2023-08-12T07:46:56;17.50;99.90
39277;DHT22;63149;48.086;-1.606;2023-08-12T07:49:23;17.50;99.90
39277;DHT22;63149;48.086;-1.606;2023-08-12T07:51:50;17.60;99.90
39277;DHT22;63149;48.086;-1.606;2023-08-12T07:54:18;17.60;99.90
39277;DHT22;63149;48.086;-1.606;2023-08-12T07:56:45;17.60;99.90
39277;DHT22;63149;48.086;-1.606;2023-08-12T07:59:12;17.70;99.90
39277;DHT22;63149;48.086;-1.606;2023-08-12T08:01:39;17.70;99.90
39277;DHT22;63149;48.086;-1.606;2023-08-12T08:04:06;17.70;99.90
39277;DHT22;63149;48.086;-1.606;2023-08-12T08:06:33;17.70;99.90
39277;DHT22;63149;48.086;-1.606;2023-08-12T08:08:59;17.80;99.90
39277;DHT22;63149;48.086;-1.606;2023-08-12T08:11:30;17.80;99.90
39277;DHT22;63149;48.086;-1.606;2023-08-12T08:13:58;17.90;99.90
39277;DHT22;63149;48.086;-1.606;2023-08-12T08:16:25;17.90;99.90
39277;DHT22;63149;48.086;-1.606;2023-08-12T08:18:52;18.00;99.90
39277;DHT22;63149;48.086;-1.606;2023-08-12T08:21:19;18.10;99.90
39277;DHT22;63149;48.086;-1.606;2023-08-12T08:23:46;18.20;99.90
39277;DHT22;63149;48.086;-1.606;2023-08-12T08:26:13;18.30;99.90
39277;DHT22;63149;48.086;-1.606;2023-08-12T08:28:42;18.40;99.90
39277;DHT22;63149;48.086;-1.606;2023-08-12T08:31:09;18.50;99.90
39277;DHT22;63149;48.086;-1.606;2023-08-12T08:33:36;18.60;99.90
39277;DHT22;63149;48.086;-1.606;2023-08-12T08:36:03;18.70;99.90
39277;DHT22;63149;48.086;-1.606;2023-08-12T08:38:30;18.80;99.90
39277;DHT22;63149;48.086;-1.606;2023-08-12T08:40:58;18.90;99.90
39277;DHT22;63149;48.086;-1.606;2023-08-12T08:43:26;19.00;99.90
39277;DHT22;63149;48.086;-1.606;2023-08-12T08:45:55;19.20;99.90
39277;DHT22;63149;48.086;-1.606;2023-08-12T08:48:23;19.20;99.90
39277;DHT22;63149;48.086;-1.606;2023-08-12T08:50:50;19.40;99.90
39277;DHT22;63149;48.086;-1.606;2023-08-12T08:53:18;19.50;99.90
39277;DHT22;63149;48.086;-1.606;2023-08-12T08:55:45;19.60;99.90
39277;DHT22;63149;48.086;-1.606;2023-08-12T08:58:12;19.70;99.90
39277;DHT22;63149;48.086;-1.606;2023-08-12T09:00:39;19.80;99.90
39277;DHT22;63149;48.086;-1.606;2023-08-12T09:03:09;20.00;99.90
39277;DHT22;63149;48.086;-1.606;2023-08-12T09:05:36;20.10;99.90
39277;DHT22;63149;48.086;-1.606;2023-08-12T09:08:06;20.20;99.90
39277;DHT22;63149;48.086;-1.606;2023-08-12T09:10:36;20.30;99.90
39277;DHT22;63149;48.086;-1.606;2023-08-12T09:13:06;20.50;99.90
39277;DHT22;63149;48.086;-1.606;2023-08-12T09:15:32;20.60;99.90
39277;DHT22;63149;48.086;-1.606;2023-08-12T09:17:59;20.80;99.90
39277;DHT22;63149;48.086;-1.606;2023-08-12T09:20:28;20.90;99.90
39277;DHT22;63149;48.086;-1.606;2023-08-12T09:22:58;21.00;99.90
39277;DHT22;63149;48.086;-1.606;2023-08-12T09:25:27;21.20;99.90
39277;DHT22;63149;48.086;-1.606;2023-08-12T09:27:58;21.30;99.90
39277;DHT22;63149;48.086;-1.606;2023-08-12T09:30:28;21.50;99.90
39277;DHT22;63149;48.086;-1.606;2023-08-12T09:33:00;21.60;99.90
39277;DHT22;63149;48.086;-1.606;2023-08-12T09:35:37;21.70;99.90
39277;DHT22;63149;48.086;-1.606;2023-08-12T09:38:05;21.80;99.90
39277;DHT22;63149;48.086;-1.606;2023-08-12T09:40:34;21.90;99.90
39277;DHT22;63149;48.086;-1.606;2023-08-12T09:43:02;22.10;99.90
39277;DHT22;63149;48.086;-1.606;2023-08-12T09:45:30;22.30;99.90
39277;DHT22;63149;48.086;-1.606;2023-08-12T09:47:57;22.40;99.90
39277;DHT22;63149;48.086;-1.606;2023-08-12T09:50:25;22.50;99.90
39277;DHT22;63149;48.086;-1.606;2023-08-12T09:52:54;22.60;99.90
39277;DHT22;63149;48.086;-1.606;2023-08-12T09:55:23;22.80;99.90
39277;DHT22;63149;48.086;-1.606;2023-08-12T09:57:51;23.00;99.90
39277;DHT22;63149;48.086;-1.606;2023-08-12T10:00:19;23.20;99.90
39277;DHT22;63149;48.086;-1.606;2023-08-12T10:02:48;23.30;99.90
39277;DHT22;63149;48.086;-1.606;2023-08-12T10:05:19;23.50;99.90
39277;DHT22;63149;48.086;-1.606;2023-08-12T10:07:48;23.60;99.90
39277;DHT22;63149;48.086;-1.606;2023-08-12T10:10:17;23.70;99.90
39277;DHT22;63149;48.086;-1.606;2023-08-12T10:12:44;23.90;99.90
39277;DHT22;63149;48.086;-1.606;2023-08-12T10:15:12;24.00;99.90
39277;DHT22;63149;48.086;-1.606;2023-08-12T10:17:40;24.20;99.90
39277;DHT22;63149;48.086;-1.606;2023-08-12T10:20:09;24.30;99.90
39277;DHT22;63149;48.086;-1.606;2023-08-12T10:22:39;24.30;99.90
39277;DHT22;63149;48.086;-1.606;2023-08-12T10:25:08;24.50;99.90
39277;DHT22;63149;48.086;-1.606;2023-08-12T10:27:36;24.60;99.90
39277;DHT22;63149;48.086;-1.606;2023-08-12T10:30:03;24.70;99.90
39277;DHT22;63149;48.086;-1.606;2023-08-12T10:32:31;24.80;99.90
39277;DHT22;63149;48.086;-1.606;2023-08-12T10:34:58;24.90;99.90
39277;DHT22;63149;48.086;-1.606;2023-08-12T10:37:26;24.90;99.90
39277;DHT22;63149;48.086;-1.606;2023-08-12T10:39:54;24.90;99.90
39277;DHT22;63149;48.086;-1.606;2023-08-12T10:42:41;24.90;99.90
39277;DHT22;63149;48.086;-1.606;2023-08-12T10:45:09;24.80;99.90
39277;DHT22;63149;48.086;-1.606;2023-08-12T10:47:40;24.80;99.90
39277;DHT22;63149;48.086;-1.606;2023-08-12T10:50:17;24.70;99.90
39277;DHT22;63149;48.086;-1.606;2023-08-12T10:52:45;24.60;99.90
39277;DHT22;63149;48.086;-1.606;2023-08-12T10:55:19;24.50;99.90
39277;DHT22;63149;48.086;-1.606;2023-08-12T10:57:48;24.40;99.90
39277;DHT22;63149;48.086;-1.606;2023-08-12T11:00:16;24.20;99.90
39277;DHT22;63149;48.086;-1.606;2023-08-12T11:02:50;24.10;99.90
39277;DHT22;63149;48.086;-1.606;2023-08-12T11:05:18;24.20;99.90
39277;DHT22;63149;48.086;-1.606;2023-08-12T11:07:47;24.20;99.90
39277;DHT22;63149;48.086;-1.606;2023-08-12T11:10:16;24.20;99.90
39277;DHT22;63149;48.086;-1.606;2023-08-12T11:12:53;24.30;99.90
39277;DHT22;63149;48.086;-1.606;2023-08-12T11:15:30;24.30;99.90
39277;DHT22;63149;48.086;-1.606;2023-08-12T11:17:58;24.40;99.90
39277;DHT22;63149;48.086;-1.606;2023-08-12T11:20:28;24.50;99.90
39277;DHT22;63149;48.086;-1.606;2023-08-12T11:22:55;24.60;99.90
39277;DHT22;63149;48.086;-1.606;2023-08-12T11:25:24;24.60;99.90
39277;DHT22;63149;48.086;-1.606;2023-08-12T11:27:52;24.80;99.90
39277;DHT22;63149;48.086;-1.606;2023-08-12T11:30:20;24.90;99.90
39277;DHT22;63149;48.086;-1.606;2023-08-12T11:32:51;24.90;99.90
39277;DHT22;63149;48.086;-1.606;2023-08-12T11:35:19;24.90;99.90
39277;DHT22;63149;48.086;-1.606;2023-08-12T11:37:47;25.00;99.90
39277;DHT22;63149;48.086;-1.606;2023-08-12T11:40:15;25.00;99.90
39277;DHT22;63149;48.086;-1.606;2023-08-12T11:42:44;25.10;99.90
39277;DHT22;63149;48.086;-1.606;2023-08-12T11:45:13;25.10;99.90
39277;DHT22;63149;48.086;-1.606;2023-08-12T11:47:41;25.10;99.90
39277;DHT22;63149;48.086;-1.606;2023-08-12T11:50:10;25.10;99.90
39277;DHT22;63149;48.086;-1.606;2023-08-12T11:52:38;25.00;99.90
39277;DHT22;63149;48.086;-1.606;2023-08-12T11:55:06;25.00;99.90
39277;DHT22;63149;48.086;-1.606;2023-08-12T11:57:33;25.00;99.90
39277;DHT22;63149;48.086;-1.606;2023-08-12T12:00:02;24.90;99.90
39277;DHT22;63149;48.086;-1.606;2023-08-12T12:02:36;25.00;99.90
39277;DHT22;63149;48.086;-1.606;2023-08-12T12:05:07;24.90;99.90
39277;DHT22;63149;48.086;-1.606;2023-08-12T12:07:34;24.90;99.90
39277;DHT22;63149;48.086;-1.606;2023-08-12T12:10:01;24.90;99.90
39277;DHT22;63149;48.086;-1.606;2023-08-12T12:12:28;24.90;99.90
39277;DHT22;63149;48.086;-1.606;2023-08-12T12:14:56;24.90;99.90
39277;DHT22;63149;48.086;-1.606;2023-08-12T12:17:23;24.80;99.90
39277;DHT22;63149;48.086;-1.606;2023-08-12T12:19:55;24.70;99.90
39277;DHT22;63149;48.086;-1.606;2023-08-12T12:22:26;24.60;99.90
39277;DHT22;63149;48.086;-1.606;2023-08-12T12:24:54;24.50;99.90
39277;DHT22;63149;48.086;-1.606;2023-08-12T12:27:21;24.30;99.90
39277;DHT22;63149;48.086;-1.606;2023-08-12T12:29:48;24.30;99.90
39277;DHT22;63149;48.086;-1.606;2023-08-12T12:32:17;24.10;99.90
39277;DHT22;63149;48.086;-1.606;2023-08-12T12:34:44;24.00;99.90
39277;DHT22;63149;48.086;-1.606;2023-08-12T12:37:13;24.10;99.90
39277;DHT22;63149;48.086;-1.606;2023-08-12T12:39:40;24.10;99.90
39277;DHT22;63149;48.086;-1.606;2023-08-12T12:42:07;24.20;99.90
39277;DHT22;63149;48.086;-1.606;2023-08-12T12:44:34;24.30;99.90
39277;DHT22;63149;48.086;-1.606;2023-08-12T12:47:02;24.40;99.90
39277;DHT22;63149;48.086;-1.606;2023-08-12T12:49:29;24.40;99.90
39277;DHT22;63149;48.086;-1.606;2023-08-12T12:51:56;24.50;99.90
39277;DHT22;63149;48.086;-1.606;2023-08-12T12:54:24;24.50;99.90
39277;DHT22;63149;48.086;-1.606;2023-08-12T12:56:51;24.60;99.90
39277;DHT22;63149;48.086;-1.606;2023-08-12T12:59:18;24.60;99.90
39277;DHT22;63149;48.086;-1.606;2023-08-12T13:01:45;24.60;99.90
39277;DHT22;63149;48.086;-1.606;2023-08-12T13:04:12;24.60;99.90
39277;DHT22;63149;48.086;-1.606;2023-08-12T13:06:39;24.50;99.90
39277;DHT22;63149;48.086;-1.606;2023-08-12T13:09:06;24.50;99.90
39277;DHT22;63149;48.086;-1.606;2023-08-12T13:11:35;24.50;99.90
39277;DHT22;63149;48.086;-1.606;2023-08-12T13:14:02;24.30;99.90
39277;DHT22;63149;48.086;-1.606;2023-08-12T13:16:30;24.30;99.90
39277;DHT22;63149;48.086;-1.606;2023-08-12T13:18:57;24.30;99.90
39277;DHT22;63149;48.086;-1.606;2023-08-12T13:21:24;24.20;99.90
39277;DHT22;63149;48.086;-1.606;2023-08-12T13:23:51;24.20;99.90
39277;DHT22;63149;48.086;-1.606;2023-08-12T13:26:18;24.20;99.90
39277;DHT22;63149;48.086;-1.606;2023-08-12T13:28:47;24.20;99.90
39277;DHT22;63149;48.086;-1.606;2023-08-12T13:31:14;24.10;99.90
39277;DHT22;63149;48.086;-1.606;2023-08-12T13:33:41;24.10;99.90
39277;DHT22;63149;48.086;-1.606;2023-08-12T13:36:08;24.10;99.90
39277;DHT22;63149;48.086;-1.606;2023-08-12T13:38:35;24.00;99.90
39277;DHT22;63149;48.086;-1.606;2023-08-12T13:41:01;24.00;99.90
39277;DHT22;63149;48.086;-1.606;2023-08-12T13:43:28;24.00;99.90
39277;DHT22;63149;48.086;-1.606;2023-08-12T13:45:57;23.90;99.90
39277;DHT22;63149;48.086;-1.606;2023-08-12T13:48:24;23.80;99.90
39277;DHT22;63149;48.086;-1.606;2023-08-12T13:50:51;23.90;99.90
39277;DHT22;63149;48.086;-1.606;2023-08-12T13:53:18;23.90;99.90
39277;DHT22;63149;48.086;-1.606;2023-08-12T13:55:45;23.90;99.90
39277;DHT22;63149;48.086;-1.606;2023-08-12T13:58:12;23.80;99.90
39277;DHT22;63149;48.086;-1.606;2023-08-12T14:00:39;23.80;99.90
39277;DHT22;63149;48.086;-1.606;2023-08-12T14:03:07;23.80;99.90
39277;DHT22;63149;48.086;-1.606;2023-08-12T14:05:34;23.70;99.90
39277;DHT22;63149;48.086;-1.606;2023-08-12T14:08:01;23.60;99.90
39277;DHT22;63149;48.086;-1.606;2023-08-12T14:10:28;23.60;99.90
39277;DHT22;63149;48.086;-1.606;2023-08-12T14:12:55;23.60;99.90
39277;DHT22;63149;48.086;-1.606;2023-08-12T14:15:22;23.50;99.90
39277;DHT22;63149;48.086;-1.606;2023-08-12T14:17:49;23.50;99.90
39277;DHT22;63149;48.086;-1.606;2023-08-12T14:20:17;23.50;99.90
39277;DHT22;63149;48.086;-1.606;2023-08-12T14:22:44;23.50;99.90
39277;DHT22;63149;48.086;-1.606;2023-08-12T14:25:11;23.50;99.90
39277;DHT22;63149;48.086;-1.606;2023-08-12T14:27:38;23.40;99.90
39277;DHT22;63149;48.086;-1.606;2023-08-12T14:30:07;23.40;99.90
39277;DHT22;63149;48.086;-1.606;2023-08-12T14:32:34;23.40;99.90
39277;DHT22;63149;48.086;-1.606;2023-08-12T14:35:01;23.40;99.90
39277;DHT22;63149;48.086;-1.606;2023-08-12T14:37:29;23.40;99.90
39277;DHT22;63149;48.086;-1.606;2023-08-12T14:39:56;23.40;99.90
39277;DHT22;63149;48.086;-1.606;2023-08-12T14:42:23;23.40;99.90
39277;DHT22;63149;48.086;-1.606;2023-08-12T14:44:50;23.30;99.90
39277;DHT22;63149;48.086;-1.606;2023-08-12T14:47:17;23.30;99.90
39277;DHT22;63149;48.086;-1.606;2023-08-12T14:49:44;23.30;99.90
39277;DHT22;63149;48.086;-1.606;2023-08-12T14:52:16;23.30;99.90
39277;DHT22;63149;48.086;-1.606;2023-08-12T14:54:46;23.40;99.90
39277;DHT22;63149;48.086;-1.606;2023-08-12T14:57:12;23.40;99.90
39277;DHT22;63149;48.086;-1.606;2023-08-12T14:59:40;23.40;99.90
39277;DHT22;63149;48.086;-1.606;2023-08-12T15:02:06;23.30;99.90
39277;DHT22;63149;48.086;-1.606;2023-08-12T15:04:33;23.30;99.90
39277;DHT22;63149;48.086;-1.606;2023-08-12T15:07:01;23.30;99.90
39277;DHT22;63149;48.086;-1.606;2023-08-12T15:09:28;23.20;99.90
39277;DHT22;63149;48.086;-1.606;2023-08-12T15:11:56;23.20;99.90
39277;DHT22;63149;48.086;-1.606;2023-08-12T15:14:23;23.10;99.90
39277;DHT22;63149;48.086;-1.606;2023-08-12T15:16:51;23.10;99.90
39277;DHT22;63149;48.086;-1.606;2023-08-12T15:19:18;23.10;99.90
39277;DHT22;63149;48.086;-1.606;2023-08-12T15:21:45;23.00;99.90
39277;DHT22;63149;48.086;-1.606;2023-08-12T15:24:12;23.00;99.90
39277;DHT22;63149;48.086;-1.606;2023-08-12T15:26:39;22.90;99.90
39277;DHT22;63149;48.086;-1.606;2023-08-12T15:29:07;22.90;99.90
39277;DHT22;63149;48.086;-1.606;2023-08-12T15:31:35;22.90;99.90
39277;DHT22;63149;48.086;-1.606;2023-08-12T15:34:02;22.90;99.90
39277;DHT22;63149;48.086;-1.606;2023-08-12T15:36:29;22.90;99.90
39277;DHT22;63149;48.086;-1.606;2023-08-12T15:38:56;22.90;99.90
39277;DHT22;63149;48.086;-1.606;2023-08-12T15:41:23;22.80;99.90
39277;DHT22;63149;48.086;-1.606;2023-08-12T15:43:50;22.90;99.90
39277;DHT22;63149;48.086;-1.606;2023-08-12T15:46:18;22.90;99.90
39277;DHT22;63149;48.086;-1.606;2023-08-12T15:48:45;23.00;99.90
39277;DHT22;63149;48.086;-1.606;2023-08-12T15:51:12;23.00;99.90
39277;DHT22;63149;48.086;-1.606;2023-08-12T15:53:39;23.00;99.90
39277;DHT22;63149;48.086;-1.606;2023-08-12T15:56:06;23.00;99.90
39277;DHT22;63149;48.086;-1.606;2023-08-12T15:58:33;23.10;99.90
39277;DHT22;63149;48.086;-1.606;2023-08-12T16:01:00;23.00;99.90
39277;DHT22;63149;48.086;-1.606;2023-08-12T16:03:28;23.00;99.90
39277;DHT22;63149;48.086;-1.606;2023-08-12T16:05:56;23.00;99.90
39277;DHT22;63149;48.086;-1.606;2023-08-12T16:08:24;22.90;99.90
39277;DHT22;63149;48.086;-1.606;2023-08-12T16:10:52;22.90;99.90
39277;DHT22;63149;48.086;-1.606;2023-08-12T16:13:19;22.90;99.90
39277;DHT22;63149;48.086;-1.606;2023-08-12T16:15:46;22.90;99.90
39277;DHT22;63149;48.086;-1.606;2023-08-12T16:18:13;22.80;99.90
39277;DHT22;63149;48.086;-1.606;2023-08-12T16:20:42;22.80;99.90
39277;DHT22;63149;48.086;-1.606;2023-08-12T16:23:09;22.80;99.90
39277;DHT22;63149;48.086;-1.606;2023-08-12T16:25:36;22.70;99.90
39277;DHT22;63149;48.086;-1.606;2023-08-12T16:28:03;22.70;99.90
39277;DHT22;63149;48.086;-1.606;2023-08-12T16:30:30;22.70;99.90
39277;DHT22;63149;48.086;-1.606;2023-08-12T16:32:57;22.70;99.90
39277;DHT22;63149;48.086;-1.606;2023-08-12T16:35:24;22.60;99.90
39277;DHT22;63149;48.086;-1.606;2023-08-12T16:37:52;22.60;99.90
39277;DHT22;63149;48.086;-1.606;2023-08-12T16:40:20;22.50;99.90
39277;DHT22;63149;48.086;-1.606;2023-08-12T16:42:47;22.50;99.90
39277;DHT22;63149;48.086;-1.606;2023-08-12T16:45:14;22.50;99.90
39277;DHT22;63149;48.086;-1.606;2023-08-12T16:47:41;22.50;99.90
39277;DHT22;63149;48.086;-1.606;2023-08-12T16:50:08;22.50;99.90
39277;DHT22;63149;48.086;-1.606;2023-08-12T16:52:35;22.50;99.90
39277;DHT22;63149;48.086;-1.606;2023-08-12T16:55:04;22.50;99.90
39277;DHT22;63149;48.086;-1.606;2023-08-12T16:57:32;22.40;99.90
39277;DHT22;63149;48.086;-1.606;2023-08-12T16:59:59;22.40;99.90
39277;DHT22;63149;48.086;-1.606;2023-08-12T17:02:28;22.30;99.90
39277;DHT22;63149;48.086;-1.606;2023-08-12T17:04:56;22.40;99.90
39277;DHT22;63149;48.086;-1.606;2023-08-12T17:07:23;22.30;99.90
39277;DHT22;63149;48.086;-1.606;2023-08-12T17:09:50;22.30;99.90
39277;DHT22;63149;48.086;-1.606;2023-08-12T17:12:19;22.30;99.90
39277;DHT22;63149;48.086;-1.606;2023-08-12T17:14:46;22.20;99.90
39277;DHT22;63149;48.086;-1.606;2023-08-12T17:17:13;22.20;99.90
39277;DHT22;63149;48.086;-1.606;2023-08-12T17:19:41;22.20;99.90
39277;DHT22;63149;48.086;-1.606;2023-08-12T17:22:08;22.20;99.90
39277;DHT22;63149;48.086;-1.606;2023-08-12T17:24:35;22.20;99.90
39277;DHT22;63149;48.086;-1.606;2023-08-12T17:27:02;22.20;99.90
39277;DHT22;63149;48.086;-1.606;2023-08-12T17:29:30;22.20;99.90
39277;DHT22;63149;48.086;-1.606;2023-08-12T17:31:57;22.20;99.90
39277;DHT22;63149;48.086;-1.606;2023-08-12T17:34:24;22.20;99.90
39277;DHT22;63149;48.086;-1.606;2023-08-12T17:36:51;22.20;99.90
39277;DHT22;63149;48.086;-1.606;2023-08-12T17:39:18;22.20;99.90
39277;DHT22;63149;48.086;-1.606;2023-08-12T17:41:45;22.20;99.90
39277;DHT22;63149;48.086;-1.606;2023-08-12T17:44:12;22.10;99.90
39277;DHT22;63149;48.086;-1.606;2023-08-12T17:46:40;22.10;99.90
39277;DHT22;63149;48.086;-1.606;2023-08-12T17:49:08;22.00;99.90
39277;DHT22;63149;48.086;-1.606;2023-08-12T17:51:34;22.00;99.90
39277;DHT22;63149;48.086;-1.606;2023-08-12T17:54:02;22.00;99.90
39277;DHT22;63149;48.086;-1.606;2023-08-12T17:56:29;21.90;99.90
39277;DHT22;63149;48.086;-1.606;2023-08-12T17:58:56;21.90;99.90
39277;DHT22;63149;48.086;-1.606;2023-08-12T18:01:23;21.80;99.90
39277;DHT22;63149;48.086;-1.606;2023-08-12T18:03:51;21.70;99.90
39277;DHT22;63149;48.086;-1.606;2023-08-12T18:06:18;21.70;99.90
39277;DHT22;63149;48.086;-1.606;2023-08-12T18:08:45;21.60;99.90
39277;DHT22;63149;48.086;-1.606;2023-08-12T18:11:11;21.50;99.90
39277;DHT22;63149;48.086;-1.606;2023-08-12T18:13:38;21.50;99.90
39277;DHT22;63149;48.086;-1.606;2023-08-12T18:16:05;21.50;99.90
39277;DHT22;63149;48.086;-1.606;2023-08-12T18:18:32;21.40;99.90
39277;DHT22;63149;48.086;-1.606;2023-08-12T18:21:00;21.40;99.90
39277;DHT22;63149;48.086;-1.606;2023-08-12T18:23:27;21.40;99.90
39277;DHT22;63149;48.086;-1.606;2023-08-12T18:25:55;21.30;99.90
39277;DHT22;63149;48.086;-1.606;2023-08-12T18:28:21;21.30;99.90
39277;DHT22;63149;48.086;-1.606;2023-08-12T18:30:48;21.20;99.90
39277;DHT22;63149;48.086;-1.606;2023-08-12T18:33:15;21.20;99.90
39277;DHT22;63149;48.086;-1.606;2023-08-12T18:35:43;21.20;99.90
39277;DHT22;63149;48.086;-1.606;2023-08-12T18:38:11;21.20;99.90
39277;DHT22;63149;48.086;-1.606;2023-08-12T18:40:38;21.10;99.90
39277;DHT22;63149;48.086;-1.606;2023-08-12T18:43:05;21.10;99.90
39277;DHT22;63149;48.086;-1.606;2023-08-12T18:45:32;21.10;99.90
39277;DHT22;63149;48.086;-1.606;2023-08-12T18:47:59;21.00;99.90
39277;DHT22;63149;48.086;-1.606;2023-08-12T18:50:26;21.00;99.90
39277;DHT22;63149;48.086;-1.606;2023-08-12T18:52:53;20.90;99.90
39277;DHT22;63149;48.086;-1.606;2023-08-12T18:55:21;20.90;99.90
39277;DHT22;63149;48.086;-1.606;2023-08-12T18:57:48;20.90;99.90
39277;DHT22;63149;48.086;-1.606;2023-08-12T19:00:16;20.80;99.90
39277;DHT22;63149;48.086;-1.606;2023-08-12T19:02:44;20.80;99.90
39277;DHT22;63149;48.086;-1.606;2023-08-12T19:05:12;20.80;99.90
39277;DHT22;63149;48.086;-1.606;2023-08-12T19:07:39;20.70;99.90
39277;DHT22;63149;48.086;-1.606;2023-08-12T19:10:07;20.70;99.90
39277;DHT22;63149;48.086;-1.606;2023-08-12T19:12:35;20.70;99.90
39277;DHT22;63149;48.086;-1.606;2023-08-12T19:15:02;20.60;99.90
39277;DHT22;63149;48.086;-1.606;2023-08-12T19:17:30;20.60;99.90
39277;DHT22;63149;48.086;-1.606;2023-08-12T19:19:57;20.50;99.90
39277;DHT22;63149;48.086;-1.606;2023-08-12T19:22:24;20.60;99.90
39277;DHT22;63149;48.086;-1.606;2023-08-12T19:24:51;20.50;99.90
39277;DHT22;63149;48.086;-1.606;2023-08-12T19:27:18;20.50;99.90
39277;DHT22;63149;48.086;-1.606;2023-08-12T19:29:46;20.50;99.90
39277;DHT22;63149;48.086;-1.606;2023-08-12T19:32:13;20.50;99.90
39277;DHT22;63149;48.086;-1.606;2023-08-12T19:34:40;20.40;99.90
39277;DHT22;63149;48.086;-1.606;2023-08-12T19:37:07;20.40;99.90
39277;DHT22;63149;48.086;-1.606;2023-08-12T19:39:34;20.30;99.90
39277;DHT22;63149;48.086;-1.606;2023-08-12T19:42:01;20.30;99.90
39277;DHT22;63149;48.086;-1.606;2023-08-12T19:44:28;20.20;99.90
39277;DHT22;63149;48.086;-1.606;2023-08-12T19:46:57;20.20;99.90
39277;DHT22;63149;48.086;-1.606;2023-08-12T19:49:24;20.20;99.90
39277;DHT22;63149;48.086;-1.606;2023-08-12T19:51:51;20.20;99.90
39277;DHT22;63149;48.086;-1.606;2023-08-12T19:54:18;20.20;99.90
39277;DHT22;63149;48.086;-1.606;2023-08-12T19:56:45;20.10;99.90
39277;DHT22;63149;48.086;-1.606;2023-08-12T19:59:12;20.10;99.90
39277;DHT22;63149;48.086;-1.606;2023-08-12T20:01:39;20.00;99.90
39277;DHT22;63149;48.086;-1.606;2023-08-12T20:04:07;20.00;99.90
39277;DHT22;63149;48.086;-1.606;2023-08-12T20:06:34;20.00;99.90
39277;DHT22;63149;48.086;-1.606;2023-08-12T20:09:01;19.90;99.90
39277;DHT22;63149;48.086;-1.606;2023-08-12T20:11:28;19.90;99.90
39277;DHT22;63149;48.086;-1.606;2023-08-12T20:13:55;19.90;99.90
39277;DHT22;63149;48.086;-1.606;2023-08-12T20:16:22;19.90;99.90
39277;DHT22;63149;48.086;-1.606;2023-08-12T20:18:49;19.80;99.90